createdAt,value
2018-06-10T00:00:44.562Z,55.33
2018-06-10T00:03:13.673Z,63.83
2018-06-10T00:05:42.790Z,62.00
2018-06-10T00:08:11.895Z,62.13
2018-06-10T00:10:40.994Z,71.97
2018-06-10T00:13:10.091Z,90.27
2018-06-10T00:15:39.211Z,94.33
2018-06-10T00:18:08.288Z,106.77
2018-06-10T00:20:37.408Z,116.80
2018-06-10T00:23:06.551Z,92.83
2018-06-10T00:25:35.631Z,96.00
2018-06-10T00:28:04.814Z,85.93
2018-06-10T00:30:33.999Z,74.53
2018-06-10T00:33:03.079Z,79.93
2018-06-10T00:35:32.202Z,69.33
2018-06-10T00:38:01.261Z,69.50
2018-06-10T00:40:30.358Z,67.17
2018-06-10T00:43:00.508Z,57.93
2018-06-10T00:45:29.616Z,57.33
2018-06-10T00:47:58.772Z,55.30
2018-06-10T00:50:27.845Z,60.20
2018-06-10T00:52:56.935Z,57.47
2018-06-10T00:55:26.027Z,56.67
2018-06-10T00:57:55.146Z,49.97
2018-06-10T01:00:24.223Z,45.97
2018-06-10T01:02:53.308Z,43.07
2018-06-10T01:05:22.410Z,48.17
2018-06-10T01:07:51.562Z,57.03
2018-06-10T01:10:20.761Z,60.43
2018-06-10T01:12:49.883Z,51.93
2018-06-10T01:15:18.995Z,55.20
2018-06-10T01:17:48.055Z,56.23
2018-06-10T01:20:17.268Z,56.80
2018-06-10T01:22:46.803Z,57.77
2018-06-10T01:25:15.888Z,58.47
2018-06-10T01:27:45.031Z,81.00
2018-06-10T01:30:14.120Z,53.63
2018-06-10T01:32:43.295Z,57.80
2018-06-10T01:35:12.371Z,56.27
2018-06-10T01:37:48.031Z,61.40
2018-06-10T01:40:17.163Z,62.83
2018-06-10T01:42:46.241Z,67.07
2018-06-10T01:45:15.376Z,65.97
2018-06-10T01:47:44.502Z,59.67
2018-06-10T01:50:13.637Z,61.43
2018-06-10T01:52:42.755Z,54.13
2018-06-10T01:55:11.873Z,77.43
2018-06-10T01:57:41.016Z,65.10
2018-06-10T02:00:10.168Z,59.90
2018-06-10T02:02:39.293Z,69.07
2018-06-10T02:05:08.393Z,71.80
2018-06-10T02:07:37.547Z,67.97
2018-06-10T02:10:06.676Z,65.93
2018-06-10T02:12:35.853Z,64.87
2018-06-10T02:15:05.377Z,69.50
2018-06-10T02:17:34.522Z,52.30
2018-06-10T02:20:03.728Z,71.90
2018-06-10T02:22:32.845Z,80.73
2018-06-10T02:25:01.924Z,79.50
2018-06-10T02:27:31.166Z,82.60
2018-06-10T02:30:00.368Z,91.00
2018-06-10T02:32:29.505Z,73.20
2018-06-10T02:34:58.644Z,62.67
2018-06-10T02:37:27.779Z,63.43
2018-06-10T02:39:56.927Z,65.87
2018-06-10T02:42:26.014Z,60.97
2018-06-10T02:44:55.194Z,69.73
2018-06-10T02:47:24.323Z,67.30
2018-06-10T02:49:53.506Z,79.40
2018-06-10T02:52:22.632Z,68.17
2018-06-10T02:54:51.767Z,61.83
2018-06-10T02:57:20.895Z,68.90
2018-06-10T02:59:50.062Z,75.43
2018-06-10T03:02:19.118Z,103.37
2018-06-10T03:04:48.282Z,97.47
2018-06-10T03:07:17.376Z,97.00
2018-06-10T03:09:46.497Z,90.00
2018-06-10T03:12:15.635Z,88.07
2018-06-10T03:14:47.794Z,115.23
2018-06-10T03:17:16.953Z,135.93
2018-06-10T03:19:46.065Z,153.73
2018-06-10T03:22:15.255Z,129.30
2018-06-10T03:24:44.402Z,130.70
2018-06-10T03:27:13.562Z,100.37
2018-06-10T03:29:42.903Z,103.63
2018-06-10T03:32:12.032Z,95.87
2018-06-10T03:34:41.187Z,103.10
2018-06-10T03:37:10.288Z,120.83
2018-06-10T03:39:39.485Z,123.30
2018-06-10T03:42:08.669Z,145.37
2018-06-10T03:44:37.800Z,129.93
2018-06-10T03:47:06.940Z,131.20
2018-06-10T03:49:36.056Z,112.17
2018-06-10T03:52:05.207Z,143.17
2018-06-10T03:54:34.385Z,147.87
2018-06-10T03:57:03.500Z,170.77
2018-06-10T03:59:33.812Z,180.10
2018-06-10T04:02:02.941Z,133.93
2018-06-10T04:04:32.030Z,127.43
2018-06-10T04:07:01.130Z,232.80
2018-06-10T04:09:30.290Z,203.83
2018-06-10T04:11:59.395Z,154.80
2018-06-10T04:14:28.550Z,164.57
2018-06-10T04:16:57.669Z,153.60
2018-06-10T04:19:26.814Z,139.17
2018-06-10T04:21:55.896Z,137.27
2018-06-10T04:24:24.986Z,119.40
2018-06-10T04:26:54.156Z,107.83
2018-06-10T04:29:23.342Z,104.10
2018-06-10T04:31:52.421Z,98.30
2018-06-10T04:34:21.579Z,94.30
2018-06-10T04:36:50.657Z,97.87
2018-06-10T04:39:19.791Z,78.63
2018-06-10T04:41:48.966Z,78.93
2018-06-10T04:44:18.172Z,88.90
2018-06-10T04:46:47.310Z,97.57
2018-06-10T04:49:16.474Z,91.70
2018-06-10T04:51:45.618Z,84.17
2018-06-10T04:54:14.720Z,93.47
2018-06-10T04:56:43.818Z,97.73
2018-06-10T04:59:12.942Z,95.13
2018-06-10T05:01:42.090Z,104.30
2018-06-10T05:04:11.261Z,93.20
2018-06-10T05:06:40.363Z,72.83
2018-06-10T05:09:09.493Z,55.17
2018-06-10T05:11:38.587Z,54.20
2018-06-10T05:14:07.959Z,58.63
2018-06-10T05:16:37.038Z,57.17
2018-06-10T05:19:06.146Z,63.53
2018-06-10T05:21:35.326Z,64.20
2018-06-10T05:24:04.433Z,65.87
2018-06-10T05:26:33.539Z,71.37
2018-06-10T05:29:02.696Z,72.57
2018-06-10T05:31:31.832Z,72.77
2018-06-10T05:34:01.030Z,68.90
2018-06-10T05:36:30.156Z,62.07
2018-06-10T05:38:59.291Z,59.03
2018-06-10T05:41:28.424Z,65.37
2018-06-10T05:43:57.581Z,65.53
2018-06-10T05:46:26.737Z,52.50
2018-06-10T05:48:55.861Z,52.70
2018-06-10T05:51:25.095Z,52.20
2018-06-10T05:53:54.169Z,53.13
2018-06-10T05:56:23.316Z,56.60
2018-06-10T05:58:52.464Z,54.83
2018-06-10T06:01:21.604Z,60.43
2018-06-10T06:03:50.789Z,49.40
2018-06-10T06:06:19.905Z,47.97
2018-06-10T06:08:49.097Z,46.77
2018-06-10T06:11:18.189Z,47.47
2018-06-10T06:13:47.282Z,49.70
2018-06-10T06:16:16.474Z,53.03
2018-06-10T06:19:01.345Z,48.37
2018-06-10T06:21:32.440Z,44.43
2018-06-10T06:24:03.739Z,45.37
2018-06-10T06:26:37.531Z,47.27
2018-06-10T06:29:06.721Z,48.77
2018-06-10T06:31:35.868Z,52.47
2018-06-10T06:34:05.028Z,46.33
2018-06-10T06:36:34.126Z,45.20
2018-06-10T06:39:03.307Z,45.17
2018-06-10T06:41:32.506Z,47.43
2018-06-10T06:44:01.601Z,55.17
2018-06-10T06:46:30.953Z,45.13
2018-06-10T06:49:00.713Z,47.30
2018-06-10T06:51:29.840Z,46.87
2018-06-10T06:53:58.966Z,48.43
2018-06-10T06:56:28.102Z,52.17
2018-06-10T06:58:57.225Z,50.50
2018-06-10T07:01:26.369Z,47.87
2018-06-10T07:03:55.494Z,48.67
2018-06-10T07:06:24.630Z,47.77
2018-06-10T07:08:53.708Z,57.43
2018-06-10T07:11:22.809Z,50.10
2018-06-10T07:13:51.943Z,46.90
2018-06-10T07:16:21.055Z,49.20
2018-06-10T07:18:50.194Z,50.90
2018-06-10T07:21:19.865Z,48.73
2018-06-10T07:23:48.944Z,48.43
2018-06-10T07:26:18.062Z,48.97
2018-06-10T07:28:47.206Z,53.63
2018-06-10T07:31:16.343Z,46.70
2018-06-10T07:33:45.649Z,48.57
2018-06-10T07:36:14.909Z,49.07
2018-06-10T07:38:43.984Z,50.40
2018-06-10T07:41:13.154Z,50.67
2018-06-10T07:43:42.244Z,50.23
2018-06-10T07:46:12.506Z,58.83
2018-06-10T07:48:42.409Z,62.90
2018-06-10T07:51:12.076Z,64.50
2018-06-10T07:53:41.939Z,76.60
2018-06-10T07:56:11.651Z,70.63
2018-06-10T07:58:41.446Z,70.67
2018-06-10T08:01:11.296Z,59.73
2018-06-10T08:03:40.866Z,61.70
2018-06-10T08:06:10.453Z,59.53
2018-06-10T08:08:40.249Z,58.27
2018-06-10T08:11:10.196Z,57.00
2018-06-10T08:13:39.413Z,56.50
2018-06-10T08:16:09.310Z,59.93
2018-06-10T08:18:38.788Z,59.10
2018-06-10T08:21:07.987Z,55.20
2018-06-10T08:23:37.475Z,55.00
2018-06-10T08:26:06.977Z,57.60
2018-06-10T08:28:36.505Z,59.23
2018-06-10T08:31:05.709Z,55.23
2018-06-10T08:33:34.935Z,63.00
2018-06-10T08:36:04.190Z,64.10
2018-06-10T08:38:33.404Z,67.47
2018-06-10T08:41:02.582Z,69.43
2018-06-10T08:43:33.330Z,76.47
2018-06-10T08:46:02.471Z,85.27
2018-06-10T08:48:31.729Z,84.57
2018-06-10T08:51:00.929Z,87.37
2018-06-10T08:53:49.939Z,91.73
2018-06-10T08:56:20.095Z,86.57
2018-06-10T08:58:49.255Z,82.67
2018-06-10T09:01:18.439Z,89.87
2018-06-10T09:03:47.605Z,88.20
2018-06-10T09:06:16.797Z,83.07
2018-06-10T09:08:46.216Z,82.73
2018-06-10T09:11:15.584Z,82.77
2018-06-10T09:13:44.838Z,86.47
2018-06-10T09:16:14.185Z,89.00
2018-06-10T09:18:43.338Z,90.73
2018-06-10T09:21:12.625Z,90.37
2018-06-10T09:23:41.909Z,91.87
2018-06-10T09:26:11.030Z,119.67
2018-06-10T09:28:40.552Z,94.10
2018-06-10T09:31:09.779Z,97.40
2018-06-10T09:33:38.995Z,99.73
2018-06-10T09:36:08.279Z,97.53
2018-06-10T09:38:37.983Z,105.23
2018-06-10T09:41:07.230Z,100.63
2018-06-10T09:43:36.538Z,97.53
2018-06-10T09:46:06.009Z,110.20
2018-06-10T09:48:35.321Z,101.20
2018-06-10T09:51:04.475Z,106.80
2018-06-10T09:53:33.726Z,105.63
2018-06-10T09:56:02.909Z,105.27
2018-06-10T09:58:32.075Z,105.63
2018-06-10T10:01:01.365Z,105.17
2018-06-10T10:03:30.805Z,98.50
2018-06-10T10:06:00.057Z,103.97
2018-06-10T10:08:31.464Z,96.77
2018-06-10T10:11:00.638Z,95.47
2018-06-10T10:13:29.810Z,85.73
2018-06-10T10:15:59.397Z,87.60
2018-06-10T10:18:29.438Z,83.53
2018-06-10T10:20:59.534Z,77.73
2018-06-10T10:23:28.757Z,79.53
2018-06-10T10:25:57.910Z,72.10
2018-06-10T10:28:27.014Z,75.37
2018-06-10T10:30:56.190Z,70.97
2018-06-10T10:33:25.421Z,68.00
2018-06-10T10:35:54.621Z,72.67
2018-06-10T10:38:23.758Z,70.33
2018-06-10T10:40:52.953Z,67.53
2018-06-10T10:46:18.986Z,71.53
2018-06-10T10:48:48.177Z,70.27
2018-06-10T10:51:17.317Z,75.73
2018-06-10T10:53:46.572Z,74.80
2018-06-10T10:56:16.001Z,73.37
2018-06-10T10:58:45.240Z,65.70
2018-06-10T11:01:14.528Z,62.20
2018-06-10T11:03:43.792Z,71.47
2018-06-10T11:06:12.940Z,66.60
2018-06-10T11:08:42.131Z,63.63
2018-06-10T11:11:11.223Z,70.80
2018-06-10T11:13:40.408Z,71.67
2018-06-10T11:16:09.605Z,66.77
2018-06-10T11:18:38.804Z,62.03
2018-06-10T11:21:07.963Z,63.10
2018-06-10T11:23:37.116Z,62.20
2018-06-10T11:26:06.287Z,60.73
2018-06-10T11:28:36.580Z,61.93
2018-06-10T11:31:05.724Z,58.30
2018-06-10T11:33:34.892Z,60.70
2018-06-10T11:36:04.385Z,61.70
2018-06-10T11:38:33.694Z,69.77
2018-06-10T11:41:02.828Z,60.90
2018-06-10T11:43:31.930Z,70.37
2018-06-10T11:46:01.200Z,66.47
2018-06-10T11:48:30.481Z,73.97
2018-06-10T11:50:59.723Z,71.47
2018-06-10T11:53:28.877Z,69.43
2018-06-10T11:55:58.187Z,68.57
2018-06-10T11:58:29.632Z,64.27
2018-06-10T12:01:01.268Z,64.87
2018-06-10T12:03:32.259Z,61.73
2018-06-10T12:06:04.181Z,64.10
2018-06-10T12:08:35.661Z,62.57
2018-06-10T12:11:07.472Z,62.47
2018-06-10T12:13:39.694Z,63.35
2018-06-10T12:16:11.224Z,68.10
2018-06-10T12:18:41.908Z,67.50
2018-06-10T12:21:12.174Z,64.10
2018-06-10T12:23:42.859Z,57.33
2018-06-10T12:26:13.376Z,48.05
2018-06-10T12:28:44.590Z,44.33
2018-06-10T12:31:18.370Z,43.65
2018-06-10T12:33:50.396Z,39.33
2018-06-10T12:36:21.168Z,35.88
2018-06-10T12:38:52.354Z,32.38
2018-06-10T12:41:22.345Z,31.93
2018-06-10T12:43:51.668Z,29.32
2018-06-10T12:46:21.144Z,27.62
2018-06-10T12:48:50.443Z,27.00
2018-06-10T12:51:19.805Z,28.85
2018-06-10T12:53:49.119Z,30.37
2018-06-10T12:56:18.429Z,31.15
2018-06-10T12:58:48.431Z,29.98
2018-06-10T13:01:17.692Z,29.32
2018-06-10T13:03:47.125Z,30.17
2018-06-10T13:06:16.302Z,31.35
2018-06-10T13:08:45.545Z,30.43
2018-06-10T13:11:14.730Z,28.90
2018-06-10T13:13:44.024Z,27.27
2018-06-10T13:16:13.172Z,31.33
2018-06-10T13:18:42.335Z,30.75
2018-06-10T13:21:11.460Z,28.57
2018-06-10T13:23:40.748Z,30.48
2018-06-10T13:26:09.896Z,31.55
2018-06-10T13:28:39.084Z,27.13
2018-06-10T13:31:08.302Z,28.42
2018-06-10T13:33:37.501Z,28.40
2018-06-10T13:36:06.719Z,26.82
2018-06-10T13:38:35.922Z,27.93
2018-06-10T13:41:05.090Z,26.62
2018-06-10T13:43:34.185Z,24.77
2018-06-10T13:46:03.527Z,25.90
2018-06-10T13:48:32.792Z,25.30
2018-06-10T13:51:01.946Z,23.00
2018-06-10T13:53:31.139Z,25.60
2018-06-10T13:56:00.395Z,25.60
2018-06-10T13:58:29.469Z,23.92
2018-06-10T14:00:58.630Z,22.20
2018-06-10T14:03:27.808Z,21.87
2018-06-10T14:05:56.971Z,22.73
2018-06-10T14:08:26.084Z,23.65
2018-06-10T14:10:55.431Z,20.90
2018-06-10T14:13:24.660Z,22.48
2018-06-10T14:15:53.892Z,21.30
2018-06-10T14:18:23.168Z,23.60
2018-06-10T14:20:52.552Z,22.05
2018-06-10T14:23:21.813Z,23.02
2018-06-10T14:25:51.294Z,19.90
2018-06-10T14:28:20.465Z,19.87
2018-06-10T14:30:49.646Z,19.25
2018-06-10T14:33:18.936Z,22.55
2018-06-10T14:35:49.213Z,25.20
2018-06-10T14:38:18.400Z,22.22
2018-06-10T14:40:47.603Z,22.07
2018-06-10T14:43:16.821Z,21.42
2018-06-10T14:45:46.112Z,22.82
2018-06-10T14:48:15.359Z,20.63
2018-06-10T14:50:44.575Z,21.37
2018-06-10T14:53:13.811Z,20.73
2018-06-10T14:55:43.097Z,19.25
2018-06-10T14:58:12.266Z,19.05
2018-06-10T15:00:41.421Z,15.78
2018-06-10T15:03:10.611Z,19.60
2018-06-10T15:05:39.759Z,18.70
2018-06-10T15:08:08.917Z,18.35
2018-06-10T15:10:38.662Z,16.02
2018-06-10T15:13:07.805Z,15.58
2018-06-10T15:15:36.971Z,17.15
2018-06-10T15:18:06.255Z,15.55
2018-06-10T15:20:35.425Z,17.00
2018-06-10T15:23:04.660Z,18.75
2018-06-10T15:25:33.787Z,15.10
2018-06-10T15:28:02.972Z,17.17
2018-06-10T15:30:32.193Z,14.90
2018-06-10T15:33:01.356Z,14.35
2018-06-10T15:35:30.522Z,15.75
2018-06-10T15:37:59.889Z,15.58
2018-06-10T15:40:29.033Z,16.20
2018-06-10T15:42:58.416Z,15.08
2018-06-10T15:45:27.597Z,14.28
2018-06-10T15:47:56.938Z,13.50
2018-06-10T15:50:26.205Z,13.75
2018-06-10T15:52:55.460Z,13.85
2018-06-10T15:55:24.595Z,14.47
2018-06-10T15:57:53.924Z,14.50
2018-06-10T16:00:23.044Z,13.60
2018-06-10T16:02:52.220Z,15.45
2018-06-10T16:05:21.380Z,15.75
2018-06-10T16:07:50.631Z,15.15
2018-06-10T16:10:19.749Z,13.40
2018-06-10T16:12:48.879Z,14.55
2018-06-10T16:15:18.064Z,13.53
2018-06-10T16:17:47.273Z,13.75
2018-06-10T16:20:16.376Z,11.65
2018-06-10T16:22:45.527Z,19.52
2018-06-10T16:25:14.719Z,15.45
2018-06-10T16:27:43.903Z,14.10
2018-06-10T16:30:13.096Z,12.98
2018-06-10T16:32:42.318Z,12.10
2018-06-10T16:35:11.413Z,14.43
2018-06-10T16:37:40.592Z,13.95
2018-06-10T16:40:09.688Z,14.18
2018-06-10T16:42:38.884Z,13.40
2018-06-10T16:45:08.001Z,12.63
2018-06-10T16:47:37.198Z,12.40
2018-06-10T16:50:06.364Z,11.22
2018-06-10T16:52:35.590Z,13.08
2018-06-10T16:55:04.944Z,12.80
2018-06-10T16:57:34.090Z,12.73
2018-06-10T17:00:03.332Z,12.93
2018-06-10T17:02:32.464Z,13.10
2018-06-10T17:05:01.690Z,11.73
2018-06-10T17:07:30.774Z,12.87
2018-06-10T17:09:59.947Z,12.23
2018-06-10T17:12:29.100Z,12.23
2018-06-10T17:14:58.240Z,15.20
2018-06-10T17:17:38.527Z,13.27
2018-06-10T17:20:07.751Z,14.07
2018-06-10T17:22:37.024Z,13.85
2018-06-10T17:25:06.214Z,14.15
2018-06-10T17:27:35.389Z,13.83
2018-06-10T17:30:05.168Z,15.58
2018-06-10T17:32:34.323Z,12.68
2018-06-10T17:35:03.481Z,13.83
2018-06-10T17:37:32.717Z,12.07
2018-06-10T17:40:01.856Z,11.73
2018-06-10T17:42:31.089Z,11.12
2018-06-10T17:45:00.769Z,12.47
2018-06-10T17:47:29.985Z,12.70
2018-06-10T17:49:59.128Z,14.97
2018-06-10T17:52:28.319Z,13.57
2018-06-10T17:54:57.407Z,14.17
2018-06-10T17:57:32.527Z,12.90
2018-06-10T18:00:01.890Z,15.33
2018-06-10T18:02:31.282Z,13.13
2018-06-10T18:05:00.453Z,11.03
2018-06-10T18:07:29.704Z,13.03
2018-06-10T18:09:58.888Z,13.20
2018-06-10T18:12:28.066Z,12.13
2018-06-10T18:14:57.164Z,11.53
2018-06-10T18:17:26.437Z,11.47
2018-06-10T18:19:55.592Z,12.37
2018-06-10T18:22:24.733Z,10.97
2018-06-10T18:24:53.893Z,11.30
2018-06-10T18:27:23.046Z,10.97
2018-06-10T18:29:52.196Z,13.30
2018-06-10T18:32:21.483Z,12.23
2018-06-10T18:34:50.755Z,11.97
2018-06-10T18:37:19.870Z,12.53
2018-06-10T18:39:49.171Z,17.67
2018-06-10T18:42:18.421Z,16.57
2018-06-10T18:44:47.610Z,14.03
2018-06-10T18:47:16.817Z,14.23
2018-06-10T18:49:45.971Z,15.67
2018-06-10T18:52:15.148Z,13.13
2018-06-10T18:54:44.418Z,12.90
2018-06-10T18:57:13.634Z,14.20
2018-06-10T18:59:42.798Z,12.30
2018-06-10T19:02:12.097Z,11.20
2018-06-10T19:04:41.247Z,10.37
2018-06-10T19:07:10.901Z,15.10
2018-06-10T19:09:40.030Z,11.57
2018-06-10T19:12:09.164Z,13.17
2018-06-10T19:14:38.295Z,10.70
2018-06-10T19:17:07.489Z,10.40
2018-06-10T19:19:36.661Z,11.77
2018-06-10T19:22:05.798Z,12.80
2018-06-10T19:24:35.094Z,11.20
2018-06-10T19:27:04.288Z,10.33
2018-06-10T19:29:33.424Z,10.23
2018-06-10T19:32:02.574Z,12.53
2018-06-10T19:34:31.753Z,11.77
2018-06-10T19:37:00.938Z,12.63
2018-06-10T19:39:30.054Z,13.73
2018-06-10T19:41:59.198Z,13.90
2018-06-10T19:44:28.349Z,12.87
2018-06-10T19:46:57.513Z,13.07
2018-06-10T19:49:26.666Z,12.53
2018-06-10T19:51:55.843Z,12.67
2018-06-10T19:54:24.974Z,11.90
2018-06-10T19:56:54.204Z,14.97
2018-06-10T19:59:23.357Z,19.70
2018-06-10T20:01:52.511Z,12.50
2018-06-10T20:04:21.704Z,12.87
2018-06-10T20:06:51.673Z,13.77
2018-06-10T20:09:20.860Z,12.10
2018-06-10T20:11:50.027Z,14.67
2018-06-10T20:14:19.215Z,11.57
2018-06-10T20:16:48.430Z,16.07
2018-06-10T20:19:17.683Z,12.00
2018-06-10T20:21:46.901Z,14.90
2018-06-10T20:24:16.103Z,12.50
2018-06-10T20:26:45.277Z,12.33
2018-06-10T20:29:14.470Z,12.17
2018-06-10T20:31:43.951Z,13.63
2018-06-10T20:34:13.128Z,13.97
2018-06-10T20:36:43.513Z,12.80
2018-06-10T20:39:12.682Z,12.90
2018-06-10T20:41:41.814Z,11.77
2018-06-10T20:44:11.007Z,12.20
2018-06-10T20:46:40.166Z,12.53
2018-06-10T20:49:09.364Z,13.43
2018-06-10T20:51:39.065Z,12.97
2018-06-10T20:54:08.258Z,12.03
2018-06-10T20:56:37.379Z,13.43
2018-06-10T20:59:06.558Z,12.63
2018-06-10T21:01:35.744Z,13.57
2018-06-10T21:04:04.931Z,13.30
2018-06-10T21:06:34.125Z,13.77
2018-06-10T21:09:03.545Z,15.70
2018-06-10T21:11:32.665Z,12.80
2018-06-10T21:14:01.761Z,13.57
2018-06-10T21:16:31.431Z,13.63
2018-06-10T21:19:00.642Z,13.53
2018-06-10T21:21:29.830Z,15.33
2018-06-10T21:23:58.986Z,13.50
2018-06-10T21:26:28.164Z,15.50
2018-06-10T21:28:57.284Z,15.67
2018-06-10T21:31:26.537Z,15.33
2018-06-10T21:33:55.743Z,15.17
2018-06-10T21:36:25.058Z,15.07
2018-06-10T21:38:54.218Z,15.10
2018-06-10T21:41:23.451Z,15.43
2018-06-10T21:43:52.625Z,16.60
2018-06-10T21:46:21.716Z,15.03
2018-06-10T21:48:50.884Z,15.90
2018-06-10T21:51:20.124Z,16.37
2018-06-10T21:53:49.225Z,16.00
2018-06-10T21:56:18.449Z,16.47
2018-06-10T21:58:47.809Z,15.77
2018-06-10T22:01:17.093Z,16.47
2018-06-10T22:03:46.338Z,15.80
2018-06-10T22:06:15.494Z,15.90
2018-06-10T22:08:44.681Z,17.17
2018-06-10T22:11:13.878Z,17.63
2018-06-10T22:13:43.067Z,17.97
2018-06-10T22:16:12.272Z,17.83
2018-06-10T22:18:41.433Z,18.40
2018-06-10T22:21:10.592Z,18.07
2018-06-10T22:23:39.734Z,17.23
2018-06-10T22:26:08.973Z,16.40
2018-06-10T22:28:38.165Z,17.97
2018-06-10T22:31:07.717Z,18.73
2018-06-10T22:33:36.948Z,20.57
2018-06-10T22:36:06.124Z,20.43
2018-06-10T22:38:35.321Z,19.57
2018-06-10T22:41:04.477Z,20.03
2018-06-10T22:43:33.702Z,19.80
2018-06-10T22:46:02.895Z,20.57
2018-06-10T22:48:32.001Z,19.90
2018-06-10T22:51:01.176Z,19.93
2018-06-10T22:55:38.425Z,23.70
2018-06-10T22:58:07.637Z,20.20
2018-06-10T23:00:36.836Z,20.73
2018-06-10T23:03:07.413Z,20.17
2018-06-10T23:05:36.521Z,21.77
2018-06-10T23:08:06.007Z,21.63
2018-06-10T23:10:35.162Z,20.90
2018-06-10T23:13:04.290Z,21.83
2018-06-10T23:15:33.467Z,22.13
2018-06-10T23:18:02.591Z,21.13
2018-06-10T23:20:31.810Z,20.07
2018-06-10T23:23:00.946Z,26.63
2018-06-10T23:25:30.176Z,21.80
2018-06-10T23:27:59.372Z,22.67
2018-06-10T23:30:28.481Z,21.53
2018-06-10T23:32:57.734Z,21.90
2018-06-10T23:35:26.951Z,23.77
2018-06-10T23:37:56.131Z,21.87
2018-06-10T23:40:25.321Z,21.77
2018-06-10T23:42:54.467Z,24.57
2018-06-10T23:45:23.668Z,23.57
2018-06-10T23:47:52.800Z,22.43
2018-06-10T23:50:21.943Z,23.27
2018-06-10T23:52:51.035Z,24.23
2018-06-10T23:55:20.206Z,23.40
2018-06-10T23:57:49.322Z,22.63
